Map

Track Data

SID SEASON NUMBER BASIN SUBBASIN NAME ISO_TIME NATURE LAT LON WMO_WIND WMO_PRES WMO_AGENCY TRACK_TYPE DIST2LAND LANDFALL IFLAG USA_AGENCY USA_ATCF_ID USA_LAT USA_LON USA_RECORD USA_STATUS USA_WIND USA_PRES USA_SSHS USA_R34_NE USA_R34_SE USA_R34_SW USA_R34_NW USA_R50_NE USA_R50_SE USA_R50_SW USA_R50_NW USA_R64_NE USA_R64_SE USA_R64_SW USA_R64_NW USA_POCI USA_ROCI USA_RMW USA_EYE TOKYO_LAT TOKYO_LON TOKYO_GRADE TOKYO_WIND TOKYO_PRES TOKYO_R50_DIR TOKYO_R50_LONG TOKYO_R50_SHORT TOKYO_R30_DIR TOKYO_R30_LONG TOKYO_R30_SHORT TOKYO_LAND CMA_LAT CMA_LON CMA_CAT CMA_WIND CMA_PRES HKO_LAT HKO_LON HKO_CAT HKO_WIND HKO_PRES NEWDELHI_LAT NEWDELHI_LON NEWDELHI_GRADE NEWDELHI_WIND NEWDELHI_PRES NEWDELHI_CI NEWDELHI_DP NEWDELHI_POCI REUNION_LAT REUNION_LON REUNION_TYPE REUNION_WIND REUNION_PRES REUNION_TNUM REUNION_CI REUNION_RMW REUNION_R34_NE REUNION_R34_SE REUNION_R34_SW REUNION_R34_NW REUNION_R50_NE REUNION_R50_SE REUNION_R50_SW REUNION_R50_NW REUNION_R64_NE REUNION_R64_SE REUNION_R64_SW REUNION_R64_NW BOM_LAT BOM_LON BOM_TYPE BOM_WIND BOM_PRES BOM_TNUM BOM_CI BOM_RMW BOM_R34_NE BOM_R34_SE BOM_R34_SW BOM_R34_NW BOM_R50_NE BOM_R50_SE BOM_R50_SW BOM_R50_NW BOM_R64_NE BOM_R64_SE BOM_R64_SW BOM_R64_NW BOM_ROCI BOM_POCI BOM_EYE BOM_POS_METHOD BOM_PRES_METHOD NADI_LAT NADI_LON NADI_CAT NADI_WIND NADI_PRES WELLINGTON_LAT WELLINGTON_LON WELLINGTON_WIND WELLINGTON_PRES DS824_LAT DS824_LON DS824_STAGE DS824_WIND DS824_PRES TD9636_LAT TD9636_LON TD9636_STAGE TD9636_WIND TD9636_PRES TD9635_LAT TD9635_LON TD9635_WIND TD9635_PRES TD9635_ROCI NEUMANN_LAT NEUMANN_LON NEUMANN_CLASS NEUMANN_WIND NEUMANN_PRES MLC_LAT MLC_LON MLC_CLASS MLC_WIND MLC_PRES USA_GUST BOM_GUST BOM_GUST_PER REUNION_GUST REUNION_GUST_PER USA_SEAHGT USA_SEARAD_NE USA_SEARAD_SE USA_SEARAD_SW USA_SEARAD_NW STORM_SPEED STORM_DIR
1925169S20152 1925 23 SP EA NOT_NAMED 1925-06-18 05:00:00 NR -20.1000 152.100 bom main 295 285 ______O_______ -1 -20.1000 152.100 8 199
1925169S20152 1925 23 SP EA NOT_NAMED 1925-06-18 06:00:00 NR -20.2349 152.066 main 285 242 ______P_______ -1 -20.2349 152.066 8 193
1925169S20152 1925 23 SP EA NOT_NAMED 1925-06-18 09:00:00 NR -20.6373 151.958 main 242 193 ______P_______ -1 -20.6373 151.958 8 195
1925169S20152 1925 23 SP EA NOT_NAMED 1925-06-18 12:00:00 NR -21.0312 151.836 main 193 152 ______P_______ -1 -21.0312 151.836 8 198
1925169S20152 1925 23 SP EA NOT_NAMED 1925-06-18 15:00:00 NR -21.4103 151.690 main 152 113 ______P_______ -1 -21.4103 151.690 8 202
1925169S20152 1925 23 SP EA NOT_NAMED 1925-06-18 18:00:00 NR -21.7682 151.509 main 106 68 ______P_______ -1 -21.7682 151.509 8 209
1925169S20152 1925 23 SP EA NOT_NAMED 1925-06-18 21:00:00 NR -22.0984 151.282 main 68 38 ______P_______ -1 -22.0984 151.282 8 216
1925169S20152 1925 23 SP EA NOT_NAMED 1925-06-18 23:00:00 NR -22.3000 151.100 999 bom main 38 23 ______O_______ -1 -22.3000 151.100 999 4 8 221
1925169S20152 1925 23 SP EA NOT_NAMED 1925-06-19 00:00:00 NR -22.3964 151.000 main 23 10 ______P_______ -1 -22.3964 151.000 8 223
1925169S20152 1925 23 SP EA NOT_NAMED 1925-06-19 01:00:00 NR -22.5000 150.900 bom main 10 0 ______O_______ -1 -22.5000 150.900 9 218
1925169S20152 1925 23 SP EA NOT_NAMED 1925-06-19 03:00:00 NR -22.7652 150.684 main 0 0 ______P_______ -1 -22.7652 150.684 11 212
1925169S20152 1925 23 SP EA NOT_NAMED 1925-06-19 06:00:00 NR -23.2659 150.384 main 0 0 ______P_______ -1 -23.2659 150.384 11 202
1925169S20152 1925 23 SP EA NOT_NAMED 1925-06-19 09:00:00 NR -23.8183 150.210 main 0 0 ______P_______ -1 -23.8183 150.210 11 193
1925169S20152 1925 23 SP EA NOT_NAMED 1925-06-19 10:00:00 NR -24.0000 150.200 bom main 0 0 ______O_______ -1 -24.0000 150.200 11 176
1925169S20152 1925 23 SP EA NOT_NAMED 1925-06-19 12:00:00 NR -24.3592 150.244 main 0 0 ______P_______ -1 -24.3592 150.244 11 163
1925169S20152 1925 23 SP EA NOT_NAMED 1925-06-19 15:00:00 NR -24.8593 150.481 main 0 0 ______P_______ -1 -24.8593 150.481 11 153
1925169S20152 1925 23 SP EA NOT_NAMED 1925-06-19 16:00:00 NR -25.0000 150.600 bom main 0 0 ______O_______ -1 -25.0000 150.600 11 135
1925169S20152 1925 23 SP EA NOT_NAMED 1925-06-19 18:00:00 NR -25.2315 150.894 main 0 0 ______P_______ -1 -25.2315 150.894 11 122
1925169S20152 1925 23 SP EA NOT_NAMED 1925-06-19 21:00:00 NR -25.4795 151.440 main 0 0 ______P_______ -1 -25.4795 151.440 11 114
1925169S20152 1925 23 SP EA NOT_NAMED 1925-06-19 23:00:00 NR -25.6000 151.800 bom main 0 0 ______O_______ -1 -25.6000 151.800 10 112
1925169S20152 1925 23 SP EA NOT_NAMED 1925-06-20 00:00:00 NR -25.6627 151.936 main 0 0 ______P_______ -1 -25.6627 151.936 7 116
1925169S20152 1925 23 SP EA NOT_NAMED 1925-06-20 03:00:00 NR -25.8094 152.275 main 0 0 ______P_______ -1 -25.8094 152.275 6 114
1925169S20152 1925 23 SP EA NOT_NAMED 1925-06-20 06:00:00 NR -25.9073 152.536 main 0 0 ______P_______ -1 -25.9073 152.536 5 111
1925169S20152 1925 23 SP EA NOT_NAMED 1925-06-20 09:00:00 NR -25.9736 152.746 main 0 0 ______P_______ -1 -25.9736 152.746 4 108
1925169S20152 1925 23 SP EA NOT_NAMED 1925-06-20 12:00:00 NR -26.0252 152.934 main 0 0 ______P_______ -1 -26.0252 152.934 4 107
1925169S20152 1925 23 SP EA NOT_NAMED 1925-06-20 15:00:00 NR -26.0788 153.129 main 0 0 ______P_______ -1 -26.0788 153.129 4 107
1925169S20152 1925 23 SP EA NOT_NAMED 1925-06-20 16:00:00 NR -26.1000 153.200 bom main 9 9 ______O_______ -1 -26.1000 153.200 4 109
1925169S20152 1925 23 SP EA NOT_NAMED 1925-06-20 18:00:00 NR -26.1491 153.357 main 29 29 ______P_______ -1 -26.1491 153.357 5 110
1925169S20152 1925 23 SP EA NOT_NAMED 1925-06-20 21:00:00 NR -26.2309 153.608 main 49 49 ______P_______ -1 -26.2309 153.608 5 111
1925169S20152 1925 23 SP EA NOT_NAMED 1925-06-20 23:00:00 NR -26.3000 153.800 bom main 69 69 ______O_______ -1 -26.3000 153.800 6 111
1925169S20152 1925 23 SP EA NOT_NAMED 1925-06-21 00:00:00 NR -26.3342 153.908 main 79 79 ______P_______ -1 -26.3342 153.908 7 109
1925169S20152 1925 23 SP EA NOT_NAMED 1925-06-21 03:00:00 NR -26.4508 154.276 main 119 119 ______P_______ -1 -26.4508 154.276 8 110
1925169S20152 1925 23 SP EA NOT_NAMED 1925-06-21 06:00:00 NR -26.5918 154.703 main 158 158 ______P_______ -1 -26.5918 154.703 9 111
1925169S20152 1925 23 SP EA NOT_NAMED 1925-06-21 09:00:00 NR -26.7624 155.179 main 200 200 ______P_______ -1 -26.7624 155.179 10 113
1925169S20152 1925 23 SP EA NOT_NAMED 1925-06-21 12:00:00 NR -26.9675 155.696 main 243 243 ______P_______ -1 -26.9675 155.696 11 115
1925169S20152 1925 23 SP EA NOT_NAMED 1925-06-21 15:00:00 NR -27.2123 156.245 main 279 279 ______P_______ -1 -27.2123 156.245 11 118
1925169S20152 1925 23 SP EA NOT_NAMED 1925-06-21 18:00:00 NR -27.5021 156.818 main 323 323 ______P_______ -1 -27.5021 156.818 12 121
1925169S20152 1925 23 SP EA NOT_NAMED 1925-06-21 21:00:00 NR -27.8424 157.405 main 375 373 ______P_______ -1 -27.8424 157.405 13 125
1925169S20152 1925 23 SP EA NOT_NAMED 1925-06-21 23:00:00 NR -28.1000 157.800 bom main 411 411 ______O_______ -1 -28.1000 157.800 13 127
1925169S20152 1925 23 SP EA NOT_NAMED 1925-06-22 00:00:00 NR -28.2386 157.998 main 430 430 ______P_______ -1 -28.2386 157.998 14 130
1925169S20152 1925 23 SP EA NOT_NAMED 1925-06-22 03:00:00 NR -28.6916 158.594 main 486 486 ______P_______ -1 -28.6916 158.594 14 132
1925169S20152 1925 23 SP EA NOT_NAMED 1925-06-22 06:00:00 NR -29.1943 159.193 main 544 544 ______P_______ -1 -29.1943 159.193 15 135
1925169S20152 1925 23 SP EA NOT_NAMED 1925-06-22 09:00:00 NR -29.7389 159.796 main 606 606 ______P_______ -1 -29.7389 159.796 15 137
1925169S20152 1925 23 SP MM NOT_NAMED 1925-06-22 12:00:00 NR -30.3176 160.405 main 674 674 ______P_______ -1 -30.3176 160.405 16 138
1925169S20152 1925 23 SP MM NOT_NAMED 1925-06-22 15:00:00 NR -30.9222 161.020 main 745 745 ______P_______ -1 -30.9222 161.020 16 139
1925169S20152 1925 23 SP MM NOT_NAMED 1925-06-22 18:00:00 NR -31.5448 161.644 main 807 807 ______P_______ -1 -31.5448 161.644 17 140
1925169S20152 1925 23 SP MM NOT_NAMED 1925-06-22 21:00:00 NR -32.1771 162.275 main 877 877 ______P_______ -1 -32.1771 162.275 17 140
1925169S20152 1925 23 SP MM NOT_NAMED 1925-06-22 23:00:00 NR -32.6000 162.700 bom main 920 ______O_______ -1 -32.6000 162.700 17 140

Digital Typhoon Data and Search

About IBTrACS Database

This database is a web-friendly format of International Best Track Archive for Climate Stewardship (IBTrACS), a global best track data archive curated by NOAA dating back to 1842.

Updated: 2021-12-08